createdAt,value
2022-10-18T00:00:20.469Z,12.30
2022-10-18T00:02:51.073Z,11.30
2022-10-18T00:05:21.736Z,12.90
2022-10-18T00:07:52.106Z,14.70
2022-10-18T00:10:24.798Z,12.80
2022-10-18T00:12:55.831Z,12.70
2022-10-18T00:15:26.410Z,13.80
2022-10-18T00:17:56.944Z,11.30
2022-10-18T00:20:27.822Z,14.90
2022-10-18T00:22:58.273Z,17.40
2022-10-18T00:25:28.944Z,12.60
2022-10-18T00:27:59.286Z,14.00
2022-10-18T00:30:29.935Z,14.60
2022-10-18T00:33:00.404Z,13.50
2022-10-18T00:35:30.926Z,13.40
2022-10-18T00:38:01.292Z,12.50
2022-10-18T00:40:31.942Z,12.90
2022-10-18T00:43:02.417Z,14.20
2022-10-18T00:45:33.172Z,14.10
2022-10-18T00:48:05.566Z,17.70
2022-10-18T00:50:37.614Z,13.30
2022-10-18T00:53:17.426Z,15.70
2022-10-18T00:55:52.420Z,15.50
2022-10-18T00:58:23.285Z,13.00
2022-10-18T01:00:53.808Z,13.00
2022-10-18T01:03:24.378Z,11.80
2022-10-18T01:05:54.810Z,12.20
2022-10-18T01:09:01.983Z,11.60
2022-10-18T01:11:57.496Z,10.30
2022-10-18T01:14:54.166Z,17.60
2022-10-18T01:17:33.207Z,13.90
2022-10-18T01:20:28.477Z,11.20
2022-10-18T01:23:03.888Z,12.40
2022-10-18T01:25:43.427Z,12.00
2022-10-18T01:28:29.817Z,9.50
2022-10-18T01:31:02.754Z,12.80
2022-10-18T01:33:39.137Z,12.40
2022-10-18T01:36:16.515Z,14.10
2022-10-18T01:38:50.126Z,11.60
2022-10-18T01:41:25.064Z,10.20
2022-10-18T01:44:00.139Z,14.80
2022-10-18T01:46:31.403Z,9.80
2022-10-18T01:51:34.167Z,10.00
2022-10-18T01:54:04.689Z,14.30
2022-10-18T01:56:44.205Z,11.70
2022-10-18T01:59:26.955Z,11.50
2022-10-18T02:02:04.125Z,10.80
2022-10-18T02:04:43.248Z,10.60
2022-10-18T02:07:24.748Z,10.70
2022-10-18T02:10:03.649Z,10.20
2022-10-18T02:12:35.973Z,12.00
2022-10-18T02:15:09.843Z,14.50
2022-10-18T02:17:41.977Z,10.70
2022-10-18T02:20:14.476Z,9.50
2022-10-18T02:22:46.125Z,9.20
2022-10-18T02:25:22.374Z,11.90
2022-10-18T02:27:53.604Z,10.30
2022-10-18T02:33:02.231Z,11.80
2022-10-18T02:35:38.672Z,8.20
2022-10-18T02:38:11.024Z,9.00
2022-10-18T02:40:41.479Z,10.40
2022-10-18T02:43:11.825Z,9.10
2022-10-18T02:45:42.551Z,13.00
2022-10-18T02:48:13.216Z,9.60
2022-10-18T02:50:43.745Z,9.50
2022-10-18T02:53:14.211Z,9.10
2022-10-18T02:55:45.085Z,8.00
2022-10-18T02:58:15.577Z,8.00
2022-10-18T03:00:46.000Z,10.20
2022-10-18T03:03:16.465Z,9.20
2022-10-18T03:05:49.907Z,7.60
2022-10-18T03:08:22.657Z,9.90
2022-10-18T03:10:53.311Z,7.70
2022-10-18T03:13:23.813Z,11.40
2022-10-18T03:15:54.363Z,10.40
2022-10-18T03:18:24.865Z,8.10
2022-10-18T03:20:55.405Z,10.20
2022-10-18T03:23:25.936Z,8.10
2022-10-18T03:25:56.363Z,7.70
2022-10-18T03:28:26.869Z,9.40
2022-10-18T03:31:02.838Z,7.60
2022-10-18T03:33:34.237Z,7.80
2022-10-18T03:36:04.742Z,9.10
2022-10-18T03:38:35.204Z,8.70
2022-10-18T03:41:05.950Z,8.80
2022-10-18T03:43:36.558Z,7.50
2022-10-18T03:46:07.317Z,8.50
2022-10-18T03:48:37.760Z,8.30
2022-10-18T03:51:08.424Z,13.40
2022-10-18T03:53:40.046Z,10.10
2022-10-18T03:56:10.613Z,8.60
2022-10-18T03:58:41.216Z,11.30
2022-10-18T04:01:11.672Z,15.40
2022-10-18T04:03:42.242Z,13.40
2022-10-18T04:06:13.320Z,17.50
2022-10-18T04:08:43.835Z,13.80
2022-10-18T04:11:14.359Z,13.20
2022-10-18T04:13:44.947Z,13.70
2022-10-18T04:16:15.302Z,17.80
2022-10-18T04:18:45.812Z,15.80
2022-10-18T04:21:16.253Z,13.30
2022-10-18T04:23:47.990Z,14.30
2022-10-18T04:26:18.413Z,14.90
2022-10-18T04:28:49.054Z,16.90
2022-10-18T04:31:19.597Z,17.10
2022-10-18T04:33:50.112Z,20.10
2022-10-18T04:36:20.695Z,16.50
2022-10-18T04:38:51.423Z,14.20
2022-10-18T04:41:24.446Z,16.20
2022-10-18T04:43:55.077Z,16.20
2022-10-18T04:46:25.473Z,20.80
2022-10-18T04:48:56.058Z,18.00
2022-10-18T04:51:26.584Z,16.40
2022-10-18T04:53:57.571Z,17.20
2022-10-18T04:56:28.078Z,14.10
2022-10-18T04:58:59.094Z,17.70
2022-10-18T05:01:29.650Z,14.60
2022-10-18T05:04:00.347Z,18.00
2022-10-18T05:06:30.821Z,14.80
2022-10-18T05:09:01.521Z,15.80
2022-10-18T05:11:32.018Z,17.80
2022-10-18T05:14:02.565Z,17.00
2022-10-18T05:16:33.090Z,16.30
2022-10-18T05:19:04.472Z,14.30
2022-10-18T05:24:07.210Z,15.40
2022-10-18T05:26:37.711Z,18.40
2022-10-18T05:29:08.238Z,16.40
2022-10-18T05:31:38.946Z,16.10
2022-10-18T05:34:09.443Z,18.10
2022-10-18T05:36:39.912Z,15.60
2022-10-18T05:39:10.275Z,14.80
2022-10-18T05:41:40.740Z,15.70
2022-10-18T05:44:11.428Z,15.90
2022-10-18T05:46:41.890Z,15.70
2022-10-18T05:49:14.639Z,17.20
2022-10-18T05:51:45.069Z,14.60
2022-10-18T05:54:16.649Z,13.80
2022-10-18T05:59:15.984Z,14.70
2022-10-18T06:01:46.628Z,19.50
2022-10-18T06:04:17.913Z,16.70
2022-10-18T06:06:48.372Z,15.90
2022-10-18T06:09:18.754Z,15.10
2022-10-18T06:11:49.158Z,14.50
2022-10-18T06:14:19.572Z,12.20
2022-10-18T06:16:50.526Z,12.40
2022-10-18T06:19:21.245Z,14.00
2022-10-18T06:21:51.756Z,15.90
2022-10-18T06:24:22.485Z,15.10
2022-10-18T06:26:52.938Z,14.90
2022-10-18T06:29:23.531Z,15.50
2022-10-18T06:31:53.898Z,19.30
2022-10-18T06:34:24.393Z,16.00
2022-10-18T06:36:56.502Z,16.00
2022-10-18T06:39:29.024Z,15.80
2022-10-18T06:41:59.506Z,12.30
2022-10-18T06:44:29.956Z,13.00
2022-10-18T06:47:00.381Z,20.80
2022-10-18T06:49:31.109Z,15.50
2022-10-18T06:52:01.613Z,13.20
2022-10-18T06:54:32.030Z,19.50
2022-10-18T06:57:03.277Z,14.40
2022-10-18T06:59:33.836Z,14.40
2022-10-18T07:02:04.408Z,15.80
2022-10-18T07:04:35.004Z,15.50
2022-10-18T07:07:05.596Z,14.50
2022-10-18T07:09:36.066Z,16.20
2022-10-18T07:12:07.269Z,18.50
2022-10-18T07:17:06.606Z,16.30
2022-10-18T07:19:37.021Z,15.50
2022-10-18T07:22:07.618Z,13.20
2022-10-18T07:24:39.906Z,17.10
2022-10-18T07:27:16.306Z,16.90
2022-10-18T07:29:46.802Z,16.00
2022-10-18T07:32:17.272Z,14.70
2022-10-18T07:34:47.918Z,18.20
2022-10-18T07:37:18.510Z,19.70
2022-10-18T07:39:48.988Z,15.60
2022-10-18T07:42:19.626Z,18.30
2022-10-18T07:44:50.663Z,16.50
2022-10-18T07:47:21.195Z,16.40
2022-10-18T07:49:51.826Z,17.00
2022-10-18T07:52:22.340Z,15.70
2022-10-18T07:54:55.777Z,16.70
2022-10-18T07:57:26.320Z,24.30
2022-10-18T07:59:57.630Z,17.90
2022-10-18T08:02:28.402Z,21.00
2022-10-18T08:04:58.816Z,23.00
2022-10-18T08:07:29.378Z,20.50
2022-10-18T08:10:00.033Z,17.60
2022-10-18T08:12:30.669Z,19.90
2022-10-18T08:15:01.347Z,18.90
2022-10-18T08:17:31.922Z,21.20
2022-10-18T08:20:12.192Z,21.70
2022-10-18T08:22:57.711Z,21.00
2022-10-18T08:25:30.550Z,20.40
2022-10-18T08:28:02.354Z,18.60
2022-10-18T08:30:32.827Z,17.50
2022-10-18T08:33:03.611Z,20.30
2022-10-18T08:35:34.448Z,18.60
2022-10-18T08:38:05.226Z,18.10
2022-10-18T08:40:36.328Z,20.90
2022-10-18T08:43:13.164Z,19.80
2022-10-18T08:45:44.838Z,17.60
2022-10-18T08:48:23.088Z,18.20
2022-10-18T08:50:57.376Z,16.60
2022-10-18T08:53:37.598Z,16.40
2022-10-18T08:56:15.035Z,16.40
2022-10-18T08:58:46.596Z,15.50
2022-10-18T09:01:28.440Z,15.40
2022-10-18T09:04:24.572Z,17.80
2022-10-18T09:07:07.862Z,16.80
2022-10-18T09:09:47.580Z,19.40
2022-10-18T09:12:36.399Z,16.90
2022-10-18T09:15:17.688Z,16.60
2022-10-18T09:18:07.928Z,16.30
2022-10-18T09:20:48.945Z,17.10
2022-10-18T09:23:23.588Z,15.00
2022-10-18T09:26:01.431Z,18.10
2022-10-18T09:28:47.257Z,18.00
2022-10-18T09:31:22.707Z,15.90
2022-10-18T09:33:58.859Z,16.20
2022-10-18T09:36:35.474Z,16.50
2022-10-18T09:39:12.062Z,16.80
2022-10-18T09:41:49.038Z,15.30
2022-10-18T09:44:23.143Z,17.40
2022-10-18T09:46:58.765Z,20.70
2022-10-18T09:49:33.038Z,16.90
2022-10-18T09:52:09.157Z,20.10
2022-10-18T09:54:45.113Z,19.70
2022-10-18T09:57:20.524Z,16.20
2022-10-18T09:59:52.189Z,17.70
2022-10-18T10:02:24.545Z,17.90
2022-10-18T10:04:56.495Z,22.70
2022-10-18T10:07:42.971Z,18.90
2022-10-18T10:10:18.638Z,19.10
2022-10-18T10:12:49.813Z,16.50
2022-10-18T10:18:01.423Z,14.70
2022-10-18T10:20:38.014Z,25.50
2022-10-18T10:23:21.004Z,16.40
2022-10-18T10:25:55.445Z,17.20
2022-10-18T10:28:30.706Z,16.80
2022-10-18T10:31:20.067Z,13.50
2022-10-18T10:33:58.956Z,16.30
2022-10-18T10:36:30.462Z,16.80
2022-10-18T10:39:11.857Z,18.00
2022-10-18T10:41:43.085Z,15.20
2022-10-18T10:44:19.412Z,19.90
2022-10-18T10:46:52.037Z,18.40
2022-10-18T10:49:39.772Z,16.90
2022-10-18T10:52:27.661Z,20.60
2022-10-18T10:55:06.176Z,18.60
2022-10-18T10:57:50.193Z,17.30
2022-10-18T11:00:42.688Z,19.80
2022-10-18T11:03:28.366Z,20.10
2022-10-18T11:06:01.083Z,19.30
2022-10-18T11:08:40.062Z,17.70
2022-10-18T11:11:22.136Z,17.50
2022-10-18T11:14:24.732Z,22.00
2022-10-18T11:17:03.050Z,21.50
2022-10-18T11:19:46.208Z,21.30
2022-10-18T11:22:21.964Z,22.50
2022-10-18T11:24:52.547Z,19.90
2022-10-18T11:27:30.093Z,19.40
2022-10-18T11:30:23.657Z,19.80
2022-10-18T11:33:07.172Z,19.70
2022-10-18T11:35:47.204Z,19.30
2022-10-18T11:38:32.447Z,18.00
2022-10-18T11:41:27.847Z,20.60
2022-10-18T11:44:02.940Z,22.50
2022-10-18T11:46:47.257Z,19.60
2022-10-18T11:49:38.565Z,26.00
2022-10-18T11:52:14.820Z,22.20
2022-10-18T11:54:59.788Z,24.90
2022-10-18T11:57:47.643Z,22.70
2022-10-18T12:00:39.321Z,21.70
2022-10-18T12:03:25.251Z,23.10
2022-10-18T12:05:58.982Z,25.40
2022-10-18T12:08:34.630Z,25.00
2022-10-18T12:11:14.002Z,29.90
2022-10-18T12:13:49.265Z,24.90
2022-10-18T12:16:50.094Z,23.10
2022-10-18T12:19:26.749Z,27.70
2022-10-18T12:22:03.693Z,27.40
2022-10-18T12:24:35.438Z,23.90
2022-10-18T12:27:06.190Z,25.90
2022-10-18T12:29:45.441Z,24.10
2022-10-18T12:32:23.619Z,26.20
2022-10-18T12:34:58.638Z,24.90
2022-10-18T12:37:51.735Z,26.30
2022-10-18T12:40:25.723Z,26.30
2022-10-18T12:42:57.830Z,25.80
2022-10-18T12:45:33.112Z,24.40
2022-10-18T12:48:06.842Z,26.90
2022-10-18T12:50:40.460Z,25.90
2022-10-18T12:53:21.167Z,24.10
2022-10-18T12:55:53.803Z,28.70
2022-10-18T12:58:30.973Z,26.20
2022-10-18T13:01:07.075Z,26.30
2022-10-18T13:04:03.725Z,28.00
2022-10-18T13:07:07.943Z,31.50
2022-10-18T13:09:40.362Z,30.40
2022-10-18T13:12:50.954Z,27.00
2022-10-18T13:15:39.615Z,26.60
2022-10-18T13:18:24.134Z,27.90
2022-10-18T13:21:09.730Z,27.20
2022-10-18T13:23:49.764Z,28.30
2022-10-18T13:26:31.819Z,25.10
2022-10-18T13:29:10.613Z,26.60
2022-10-18T13:31:48.372Z,22.20
2022-10-18T13:34:29.048Z,24.10
2022-10-18T13:37:03.157Z,25.50
2022-10-18T13:39:36.783Z,20.10
2022-10-18T13:42:33.063Z,23.30
2022-10-18T13:45:38.627Z,20.70
2022-10-18T13:48:44.095Z,24.10
2022-10-18T13:51:38.601Z,23.10
2022-10-18T13:54:24.618Z,22.70
2022-10-18T13:57:13.057Z,23.80
2022-10-18T14:00:01.667Z,24.90
2022-10-18T14:03:02.748Z,24.90
2022-10-18T14:05:53.103Z,24.90
2022-10-18T14:08:30.728Z,24.90
2022-10-18T14:11:08.948Z,25.60
2022-10-18T14:13:48.377Z,26.50
2022-10-18T14:16:32.917Z,28.00
2022-10-18T14:19:14.890Z,26.20
2022-10-18T14:21:53.867Z,27.90
2022-10-18T14:24:27.692Z,27.00
2022-10-18T14:27:17.952Z,29.00
2022-10-18T14:29:49.580Z,28.70
2022-10-18T14:32:29.445Z,29.00
2022-10-18T14:35:31.701Z,24.90
2022-10-18T14:37:52.278Z,26.70
2022-10-18T14:40:35.504Z,25.60
2022-10-18T14:43:08.035Z,25.80
2022-10-18T14:45:38.836Z,22.40
2022-10-18T14:48:16.763Z,23.10
2022-10-18T14:50:51.813Z,20.60
2022-10-18T14:53:25.039Z,23.20
2022-10-18T14:56:02.585Z,22.10
2022-10-18T14:58:35.626Z,20.10
2022-10-18T15:01:06.977Z,18.70
2022-10-18T15:03:38.344Z,20.30
2022-10-18T15:06:09.802Z,22.70
2022-10-18T15:08:42.364Z,19.90
2022-10-18T15:11:15.055Z,19.10
2022-10-18T15:13:51.600Z,20.90
2022-10-18T15:16:25.318Z,20.50
2022-10-18T15:19:09.031Z,22.20
2022-10-18T15:21:39.392Z,21.50
2022-10-18T15:24:31.227Z,21.30
2022-10-18T15:27:09.818Z,22.10
2022-10-18T15:29:43.154Z,19.80
2022-10-18T15:32:25.889Z,18.20
2022-10-18T15:35:07.205Z,19.40
2022-10-18T15:40:33.547Z,18.00
2022-10-18T15:43:06.631Z,17.90
2022-10-18T15:48:25.248Z,18.10
2022-10-18T15:50:57.489Z,19.80
2022-10-18T15:53:36.415Z,16.90
2022-10-18T15:56:10.793Z,19.00
2022-10-18T15:58:44.993Z,18.80
2022-10-18T16:01:21.451Z,21.00
2022-10-18T16:03:52.602Z,16.70
2022-10-18T16:06:22.940Z,18.10
2022-10-18T16:08:54.638Z,19.90
2022-10-18T16:11:26.699Z,19.00
2022-10-18T16:13:59.619Z,21.20
2022-10-18T16:16:31.534Z,16.60
2022-10-18T16:19:02.171Z,18.40
2022-10-18T16:21:34.709Z,17.50
2022-10-18T16:24:05.960Z,15.70
2022-10-18T16:29:07.137Z,19.00
2022-10-18T16:31:37.724Z,15.70
2022-10-18T16:34:10.848Z,16.60
2022-10-18T16:36:42.086Z,17.20
2022-10-18T16:41:45.936Z,15.90
2022-10-18T16:44:18.661Z,18.30
2022-10-18T16:46:52.398Z,18.50
2022-10-18T16:49:26.647Z,17.90
2022-10-18T16:51:57.362Z,15.10
2022-10-18T16:54:28.000Z,20.20
2022-10-18T16:56:58.369Z,18.40
2022-10-18T16:59:31.404Z,17.40
2022-10-18T17:02:05.681Z,19.50
2022-10-18T17:04:36.075Z,19.50
2022-10-18T17:07:06.416Z,17.50
2022-10-18T17:09:36.996Z,18.50
2022-10-18T17:12:07.905Z,21.60
2022-10-18T17:14:38.352Z,16.60
2022-10-18T17:17:12.396Z,21.80
2022-10-18T17:19:42.805Z,17.00
2022-10-18T17:22:13.260Z,17.30
2022-10-18T17:24:43.650Z,16.80
2022-10-18T17:27:14.074Z,16.80
2022-10-18T17:29:44.368Z,17.70
2022-10-18T17:32:14.944Z,19.50
2022-10-18T17:34:45.250Z,16.10
2022-10-18T17:37:15.518Z,14.40
2022-10-18T17:39:45.918Z,17.00
2022-10-18T17:42:16.445Z,16.40
2022-10-18T17:44:46.979Z,14.60
2022-10-18T17:47:17.355Z,17.90
2022-10-18T17:49:47.838Z,16.30
2022-10-18T17:52:18.219Z,17.40
2022-10-18T17:54:48.456Z,18.00
2022-10-18T17:57:18.945Z,19.90
2022-10-18T17:59:50.825Z,18.20
2022-10-18T18:02:21.241Z,20.00
2022-10-18T18:04:51.646Z,17.50
2022-10-18T18:07:22.053Z,27.20
2022-10-18T18:09:52.437Z,19.50
2022-10-18T18:12:22.768Z,20.10
2022-10-18T18:14:53.235Z,21.50
2022-10-18T18:17:33.687Z,20.20
2022-10-18T18:22:37.029Z,18.40
2022-10-18T18:25:11.436Z,21.70
2022-10-18T18:27:41.815Z,20.00
2022-10-18T18:30:14.395Z,21.40
2022-10-18T18:32:44.773Z,18.90
2022-10-18T18:35:15.062Z,17.30
2022-10-18T18:37:45.498Z,20.40
2022-10-18T18:40:15.875Z,21.70
2022-10-18T18:43:01.627Z,20.30
2022-10-18T18:45:37.067Z,21.20
2022-10-18T18:48:08.050Z,19.00
2022-10-18T18:50:38.781Z,21.20
2022-10-18T18:53:09.142Z,22.00
2022-10-18T18:55:42.056Z,19.10
2022-10-18T18:58:12.977Z,19.10
2022-10-18T19:00:44.620Z,18.30
2022-10-18T19:03:15.361Z,23.20
2022-10-18T19:05:45.780Z,20.10
2022-10-18T19:08:16.120Z,19.80
2022-10-18T19:10:49.126Z,19.80
2022-10-18T19:13:20.620Z,20.90
2022-10-18T19:15:51.091Z,25.00
2022-10-18T19:18:23.923Z,23.80
2022-10-18T19:20:54.598Z,26.90
2022-10-18T19:25:56.466Z,25.40
2022-10-18T19:28:26.894Z,28.60
2022-10-18T19:30:58.270Z,28.60
2022-10-18T19:33:41.331Z,29.80
2022-10-18T19:36:19.336Z,30.40
2022-10-18T19:38:49.955Z,33.30
2022-10-18T19:41:20.388Z,32.90
2022-10-18T19:43:50.983Z,34.50
2022-10-18T19:46:21.544Z,33.80
2022-10-18T19:48:54.049Z,34.80
2022-10-18T19:51:27.839Z,35.40
2022-10-18T19:53:59.153Z,33.50
2022-10-18T19:56:31.085Z,32.60
2022-10-18T19:59:02.376Z,31.60
2022-10-18T20:01:33.302Z,29.10
2022-10-18T20:04:04.652Z,28.80
2022-10-18T20:09:04.968Z,28.60
2022-10-18T20:11:36.042Z,30.10
2022-10-18T20:14:07.007Z,34.30
2022-10-18T20:16:37.599Z,31.00
2022-10-18T20:19:09.493Z,32.90
2022-10-18T20:21:40.207Z,29.90
2022-10-18T20:24:11.822Z,31.80
2022-10-18T20:26:43.739Z,27.10
2022-10-18T20:29:15.054Z,38.50
2022-10-18T20:31:45.707Z,31.90
2022-10-18T20:34:16.200Z,28.30
2022-10-18T20:36:46.673Z,29.30
2022-10-18T20:39:17.233Z,28.50
2022-10-18T20:41:47.705Z,26.30
2022-10-18T20:44:21.001Z,24.20
2022-10-18T20:46:51.395Z,24.10
2022-10-18T20:49:21.810Z,22.60
2022-10-18T20:51:52.115Z,21.40
2022-10-18T20:54:22.804Z,22.70
2022-10-18T20:56:53.194Z,20.20
2022-10-18T20:59:23.625Z,22.00
2022-10-18T21:01:54.205Z,23.80
2022-10-18T21:04:24.598Z,18.60
2022-10-18T21:06:55.082Z,20.30
2022-10-18T21:09:25.564Z,21.20
2022-10-18T21:11:56.400Z,20.30
2022-10-18T21:14:27.382Z,20.00
2022-10-18T21:16:57.743Z,20.30
2022-10-18T21:19:29.240Z,18.60
2022-10-18T21:22:00.034Z,20.80
2022-10-18T21:24:30.998Z,22.60
2022-10-18T21:27:01.407Z,22.40
2022-10-18T21:29:31.947Z,24.60
2022-10-18T21:32:02.924Z,20.10
2022-10-18T21:34:33.658Z,17.90
2022-10-18T21:37:04.462Z,27.10
2022-10-18T21:39:35.139Z,20.80
2022-10-18T21:42:06.051Z,20.90
2022-10-18T21:44:36.923Z,24.20
2022-10-18T21:47:07.352Z,21.60
2022-10-18T21:49:37.676Z,22.20
2022-10-18T21:52:08.168Z,24.10
2022-10-18T21:54:38.568Z,21.60
2022-10-18T21:57:08.943Z,23.00
2022-10-18T21:59:39.418Z,25.40
2022-10-18T22:02:09.815Z,26.20
2022-10-18T22:04:43.022Z,28.00
2022-10-18T22:07:13.394Z,23.90
2022-10-18T22:09:43.689Z,29.70
2022-10-18T22:12:14.065Z,26.20
2022-10-18T22:14:44.413Z,29.40
2022-10-18T22:17:15.238Z,27.30
2022-10-18T22:19:47.273Z,23.60
2022-10-18T22:22:17.650Z,26.10
2022-10-18T22:24:49.089Z,22.10
2022-10-18T22:27:19.542Z,21.90
2022-10-18T22:29:49.976Z,20.50
2022-10-18T22:32:20.311Z,23.40
2022-10-18T22:34:50.644Z,21.30
2022-10-18T22:37:21.016Z,19.30
2022-10-18T22:39:51.381Z,22.10
2022-10-18T22:42:21.859Z,20.20
2022-10-18T22:44:52.294Z,22.80
2022-10-18T22:47:24.231Z,25.10
2022-10-18T22:49:54.638Z,25.40
2022-10-18T22:52:25.153Z,23.90
2022-10-18T22:54:55.518Z,23.50
2022-10-18T22:57:25.942Z,22.70
2022-10-18T22:59:56.589Z,21.10
2022-10-18T23:02:27.106Z,21.00
2022-10-18T23:04:57.593Z,20.30
2022-10-18T23:07:27.884Z,17.60
2022-10-18T23:09:59.050Z,20.50
2022-10-18T23:12:29.977Z,18.10
2022-10-18T23:15:00.560Z,18.30
2022-10-18T23:17:31.443Z,16.60
2022-10-18T23:22:31.391Z,16.90
2022-10-18T23:25:02.058Z,17.50
2022-10-18T23:27:32.571Z,16.60
2022-10-18T23:30:03.616Z,14.80
2022-10-18T23:32:34.589Z,21.30
2022-10-18T23:35:05.801Z,16.90
2022-10-18T23:37:36.583Z,19.70
2022-10-18T23:40:09.295Z,13.90
2022-10-18T23:42:39.729Z,14.30
2022-10-18T23:45:12.027Z,20.10
2022-10-18T23:47:42.470Z,16.20
2022-10-18T23:50:13.045Z,14.50
2022-10-18T23:52:43.654Z,17.20
2022-10-18T23:55:14.036Z,13.50
2022-10-18T23:57:44.426Z,13.40
